sensor_id;sensor_type;location;lat;lon;timestamp;temperature;humidity
23629;DHT22;11991;57.150;-2.134;2023-09-07T00:01:19;16.70;99.90
23629;DHT22;11991;57.150;-2.134;2023-09-07T00:03:46;16.70;99.90
23629;DHT22;11991;57.150;-2.134;2023-09-07T00:06:14;16.70;99.90
23629;DHT22;11991;57.150;-2.134;2023-09-07T00:08:41;16.70;99.90
23629;DHT22;11991;57.150;-2.134;2023-09-07T00:11:08;16.70;99.90
23629;DHT22;11991;57.150;-2.134;2023-09-07T00:13:39;16.70;99.90
23629;DHT22;11991;57.150;-2.134;2023-09-07T00:16:06;16.70;99.90
23629;DHT22;11991;57.150;-2.134;2023-09-07T00:18:34;16.70;99.90
23629;DHT22;11991;57.150;-2.134;2023-09-07T00:21:02;16.70;99.90
23629;DHT22;11991;57.150;-2.134;2023-09-07T00:23:29;16.70;99.90
23629;DHT22;11991;57.150;-2.134;2023-09-07T00:25:57;16.70;99.90
23629;DHT22;11991;57.150;-2.134;2023-09-07T00:28:24;16.60;99.90
23629;DHT22;11991;57.150;-2.134;2023-09-07T00:30:52;16.60;99.90
23629;DHT22;11991;57.150;-2.134;2023-09-07T00:33:20;16.60;99.90
23629;DHT22;11991;57.150;-2.134;2023-09-07T00:35:47;16.60;99.90
23629;DHT22;11991;57.150;-2.134;2023-09-07T00:38:14;16.50;99.90
23629;DHT22;11991;57.150;-2.134;2023-09-07T00:40:44;16.50;99.90
23629;DHT22;11991;57.150;-2.134;2023-09-07T00:43:12;16.60;99.90
23629;DHT22;11991;57.150;-2.134;2023-09-07T00:45:39;16.50;99.90
23629;DHT22;11991;57.150;-2.134;2023-09-07T00:48:07;16.50;99.90
23629;DHT22;11991;57.150;-2.134;2023-09-07T00:50:35;16.50;99.90
23629;DHT22;11991;57.150;-2.134;2023-09-07T00:53:02;16.40;99.90
23629;DHT22;11991;57.150;-2.134;2023-09-07T00:55:30;16.40;99.90
23629;DHT22;11991;57.150;-2.134;2023-09-07T00:58:01;16.40;99.90
23629;DHT22;11991;57.150;-2.134;2023-09-07T01:00:29;16.40;99.90
23629;DHT22;11991;57.150;-2.134;2023-09-07T01:02:56;16.40;99.90
23629;DHT22;11991;57.150;-2.134;2023-09-07T01:05:33;16.50;99.90
23629;DHT22;11991;57.150;-2.134;2023-09-07T01:08:15;16.40;99.90
23629;DHT22;11991;57.150;-2.134;2023-09-07T01:10:44;16.40;99.90
23629;DHT22;11991;57.150;-2.134;2023-09-07T01:13:11;16.40;99.90
23629;DHT22;11991;57.150;-2.134;2023-09-07T01:15:38;16.30;99.90
23629;DHT22;11991;57.150;-2.134;2023-09-07T01:18:06;16.20;99.90
23629;DHT22;11991;57.150;-2.134;2023-09-07T01:20:51;16.20;99.90
23629;DHT22;11991;57.150;-2.134;2023-09-07T01:23:20;16.10;99.90
23629;DHT22;11991;57.150;-2.134;2023-09-07T01:25:48;16.10;99.90
23629;DHT22;11991;57.150;-2.134;2023-09-07T01:28:15;16.20;99.90
23629;DHT22;11991;57.150;-2.134;2023-09-07T01:30:43;16.20;99.90
23629;DHT22;11991;57.150;-2.134;2023-09-07T01:33:12;16.20;99.90
23629;DHT22;11991;57.150;-2.134;2023-09-07T01:35:39;16.20;99.90
23629;DHT22;11991;57.150;-2.134;2023-09-07T01:38:08;16.20;99.90
23629;DHT22;11991;57.150;-2.134;2023-09-07T01:40:35;16.20;99.90
23629;DHT22;11991;57.150;-2.134;2023-09-07T01:43:02;16.20;99.90
23629;DHT22;11991;57.150;-2.134;2023-09-07T01:45:29;16.30;99.90
23629;DHT22;11991;57.150;-2.134;2023-09-07T01:47:58;16.20;99.90
23629;DHT22;11991;57.150;-2.134;2023-09-07T01:50:26;16.30;99.90
23629;DHT22;11991;57.150;-2.134;2023-09-07T01:52:53;16.20;99.90
23629;DHT22;11991;57.150;-2.134;2023-09-07T01:55:20;16.20;99.90
23629;DHT22;11991;57.150;-2.134;2023-09-07T01:57:48;16.20;99.90
23629;DHT22;11991;57.150;-2.134;2023-09-07T02:00:15;16.10;99.90
23629;DHT22;11991;57.150;-2.134;2023-09-07T02:02:42;16.10;99.90
23629;DHT22;11991;57.150;-2.134;2023-09-07T02:05:09;16.10;99.90
23629;DHT22;11991;57.150;-2.134;2023-09-07T02:07:36;16.10;99.90
23629;DHT22;11991;57.150;-2.134;2023-09-07T02:10:05;16.10;99.90
23629;DHT22;11991;57.150;-2.134;2023-09-07T02:12:32;16.10;99.90
23629;DHT22;11991;57.150;-2.134;2023-09-07T02:15:02;16.10;99.90
23629;DHT22;11991;57.150;-2.134;2023-09-07T02:17:29;16.00;99.90
23629;DHT22;11991;57.150;-2.134;2023-09-07T02:19:57;16.10;99.90
23629;DHT22;11991;57.150;-2.134;2023-09-07T02:22:25;16.10;99.90
23629;DHT22;11991;57.150;-2.134;2023-09-07T02:24:52;16.10;99.90
23629;DHT22;11991;57.150;-2.134;2023-09-07T02:27:20;16.10;99.90
23629;DHT22;11991;57.150;-2.134;2023-09-07T02:29:47;16.10;99.90
23629;DHT22;11991;57.150;-2.134;2023-09-07T02:32:14;16.10;99.90
23629;DHT22;11991;57.150;-2.134;2023-09-07T02:34:41;16.10;99.90
23629;DHT22;11991;57.150;-2.134;2023-09-07T02:37:09;16.10;99.90
23629;DHT22;11991;57.150;-2.134;2023-09-07T02:39:36;16.10;99.90
23629;DHT22;11991;57.150;-2.134;2023-09-07T02:42:04;16.00;99.90
23629;DHT22;11991;57.150;-2.134;2023-09-07T02:44:32;16.00;99.90
23629;DHT22;11991;57.150;-2.134;2023-09-07T02:47:00;16.00;99.90
23629;DHT22;11991;57.150;-2.134;2023-09-07T02:49:27;16.00;99.90
23629;DHT22;11991;57.150;-2.134;2023-09-07T02:51:54;16.00;99.90
23629;DHT22;11991;57.150;-2.134;2023-09-07T02:54:23;16.00;99.90
23629;DHT22;11991;57.150;-2.134;2023-09-07T02:56:50;16.00;99.90
23629;DHT22;11991;57.150;-2.134;2023-09-07T02:59:18;16.10;99.90
23629;DHT22;11991;57.150;-2.134;2023-09-07T03:01:47;16.10;99.90
23629;DHT22;11991;57.150;-2.134;2023-09-07T03:04:14;16.20;99.90
23629;DHT22;11991;57.150;-2.134;2023-09-07T03:06:42;16.30;99.90
23629;DHT22;11991;57.150;-2.134;2023-09-07T03:09:09;16.30;99.90
23629;DHT22;11991;57.150;-2.134;2023-09-07T03:11:37;16.30;99.90
23629;DHT22;11991;57.150;-2.134;2023-09-07T03:14:04;16.40;99.90
23629;DHT22;11991;57.150;-2.134;2023-09-07T03:16:31;16.40;99.90
23629;DHT22;11991;57.150;-2.134;2023-09-07T03:18:59;16.40;99.90
23629;DHT22;11991;57.150;-2.134;2023-09-07T03:21:26;16.40;99.90
23629;DHT22;11991;57.150;-2.134;2023-09-07T03:23:57;16.40;99.90
23629;DHT22;11991;57.150;-2.134;2023-09-07T03:26:24;16.40;99.90
23629;DHT22;11991;57.150;-2.134;2023-09-07T03:28:52;16.40;99.90
23629;DHT22;11991;57.150;-2.134;2023-09-07T03:31:20;16.40;99.90
23629;DHT22;11991;57.150;-2.134;2023-09-07T03:33:48;16.40;99.90
23629;DHT22;11991;57.150;-2.134;2023-09-07T03:36:15;16.40;99.90
23629;DHT22;11991;57.150;-2.134;2023-09-07T03:38:43;16.30;99.90
23629;DHT22;11991;57.150;-2.134;2023-09-07T03:41:11;16.40;99.90
23629;DHT22;11991;57.150;-2.134;2023-09-07T03:43:38;16.30;99.90
23629;DHT22;11991;57.150;-2.134;2023-09-07T03:46:06;16.30;99.90
23629;DHT22;11991;57.150;-2.134;2023-09-07T03:48:35;16.20;99.90
23629;DHT22;11991;57.150;-2.134;2023-09-07T03:51:07;16.10;99.90
23629;DHT22;11991;57.150;-2.134;2023-09-07T03:53:34;16.10;99.90
23629;DHT22;11991;57.150;-2.134;2023-09-07T03:56:02;16.00;99.90
23629;DHT22;11991;57.150;-2.134;2023-09-07T03:58:31;15.90;99.90
23629;DHT22;11991;57.150;-2.134;2023-09-07T04:00:59;15.90;99.90
23629;DHT22;11991;57.150;-2.134;2023-09-07T04:03:28;15.80;99.90
23629;DHT22;11991;57.150;-2.134;2023-09-07T04:05:56;15.80;99.90
23629;DHT22;11991;57.150;-2.134;2023-09-07T04:08:23;15.70;99.90
23629;DHT22;11991;57.150;-2.134;2023-09-07T04:10:50;15.70;99.90
23629;DHT22;11991;57.150;-2.134;2023-09-07T04:13:17;15.70;99.90
23629;DHT22;11991;57.150;-2.134;2023-09-07T04:15:45;15.70;99.90
23629;DHT22;11991;57.150;-2.134;2023-09-07T04:18:14;15.70;99.90
23629;DHT22;11991;57.150;-2.134;2023-09-07T04:20:45;15.70;99.90
23629;DHT22;11991;57.150;-2.134;2023-09-07T04:23:14;15.80;99.90
23629;DHT22;11991;57.150;-2.134;2023-09-07T04:25:41;15.90;99.90
23629;DHT22;11991;57.150;-2.134;2023-09-07T04:28:09;15.90;99.90
23629;DHT22;11991;57.150;-2.134;2023-09-07T04:30:41;16.00;99.90
23629;DHT22;11991;57.150;-2.134;2023-09-07T04:33:08;16.00;99.90
23629;DHT22;11991;57.150;-2.134;2023-09-07T04:35:38;16.10;99.90
23629;DHT22;11991;57.150;-2.134;2023-09-07T04:38:06;16.10;99.90
23629;DHT22;11991;57.150;-2.134;2023-09-07T04:40:33;16.10;99.90
23629;DHT22;11991;57.150;-2.134;2023-09-07T04:43:00;16.10;99.90
23629;DHT22;11991;57.150;-2.134;2023-09-07T04:45:27;16.10;99.90
23629;DHT22;11991;57.150;-2.134;2023-09-07T04:47:55;16.10;99.90
23629;DHT22;11991;57.150;-2.134;2023-09-07T04:50:22;16.10;99.90
23629;DHT22;11991;57.150;-2.134;2023-09-07T04:52:49;16.10;99.90
23629;DHT22;11991;57.150;-2.134;2023-09-07T04:55:17;16.10;99.90
23629;DHT22;11991;57.150;-2.134;2023-09-07T04:57:44;16.10;99.90
23629;DHT22;11991;57.150;-2.134;2023-09-07T05:00:11;16.10;99.90
23629;DHT22;11991;57.150;-2.134;2023-09-07T05:02:38;16.10;99.90
23629;DHT22;11991;57.150;-2.134;2023-09-07T05:05:09;16.10;99.90
23629;DHT22;11991;57.150;-2.134;2023-09-07T05:07:36;16.10;99.90
23629;DHT22;11991;57.150;-2.134;2023-09-07T05:10:04;16.10;99.90
23629;DHT22;11991;57.150;-2.134;2023-09-07T05:12:34;16.10;99.90
23629;DHT22;11991;57.150;-2.134;2023-09-07T05:15:01;16.10;99.90
23629;DHT22;11991;57.150;-2.134;2023-09-07T05:17:28;16.10;99.90
23629;DHT22;11991;57.150;-2.134;2023-09-07T05:19:55;16.10;99.90
23629;DHT22;11991;57.150;-2.134;2023-09-07T05:22:22;16.10;99.90
23629;DHT22;11991;57.150;-2.134;2023-09-07T05:24:50;16.10;99.90
23629;DHT22;11991;57.150;-2.134;2023-09-07T05:27:17;16.10;99.90
23629;DHT22;11991;57.150;-2.134;2023-09-07T05:29:44;16.10;99.90
23629;DHT22;11991;57.150;-2.134;2023-09-07T05:32:13;16.10;99.90
23629;DHT22;11991;57.150;-2.134;2023-09-07T05:34:40;16.00;99.90
23629;DHT22;11991;57.150;-2.134;2023-09-07T05:37:07;16.00;99.90
23629;DHT22;11991;57.150;-2.134;2023-09-07T05:39:35;16.00;99.90
23629;DHT22;11991;57.150;-2.134;2023-09-07T05:42:02;16.00;99.90
23629;DHT22;11991;57.150;-2.134;2023-09-07T05:44:29;16.00;99.90
23629;DHT22;11991;57.150;-2.134;2023-09-07T05:46:56;15.90;99.90
23629;DHT22;11991;57.150;-2.134;2023-09-07T05:49:26;16.00;99.90
23629;DHT22;11991;57.150;-2.134;2023-09-07T05:51:53;15.90;99.90
23629;DHT22;11991;57.150;-2.134;2023-09-07T05:54:20;15.90;99.90
23629;DHT22;11991;57.150;-2.134;2023-09-07T05:56:48;15.90;99.90
23629;DHT22;11991;57.150;-2.134;2023-09-07T05:59:15;15.90;99.90
23629;DHT22;11991;57.150;-2.134;2023-09-07T06:01:42;15.90;99.90
23629;DHT22;11991;57.150;-2.134;2023-09-07T06:04:09;15.90;99.90
23629;DHT22;11991;57.150;-2.134;2023-09-07T06:06:37;15.90;99.90
23629;DHT22;11991;57.150;-2.134;2023-09-07T06:09:04;15.90;99.90
23629;DHT22;11991;57.150;-2.134;2023-09-07T06:11:32;15.90;99.90
23629;DHT22;11991;57.150;-2.134;2023-09-07T06:14:01;15.90;99.90
23629;DHT22;11991;57.150;-2.134;2023-09-07T06:16:28;16.00;99.90
23629;DHT22;11991;57.150;-2.134;2023-09-07T06:18:55;16.00;99.90
23629;DHT22;11991;57.150;-2.134;2023-09-07T06:21:22;16.00;99.90
23629;DHT22;11991;57.150;-2.134;2023-09-07T06:23:49;16.00;99.90
23629;DHT22;11991;57.150;-2.134;2023-09-07T06:26:17;16.10;99.90
23629;DHT22;11991;57.150;-2.134;2023-09-07T06:28:45;16.10;99.90
23629;DHT22;11991;57.150;-2.134;2023-09-07T06:31:12;16.20;99.90
23629;DHT22;11991;57.150;-2.134;2023-09-07T06:33:43;16.20;99.90
23629;DHT22;11991;57.150;-2.134;2023-09-07T06:36:10;16.30;99.90
23629;DHT22;11991;57.150;-2.134;2023-09-07T06:38:37;16.30;99.90
23629;DHT22;11991;57.150;-2.134;2023-09-07T06:41:05;16.40;99.90
23629;DHT22;11991;57.150;-2.134;2023-09-07T06:43:34;16.50;99.90
23629;DHT22;11991;57.150;-2.134;2023-09-07T06:46:07;16.50;99.90
23629;DHT22;11991;57.150;-2.134;2023-09-07T06:48:37;16.60;99.90
23629;DHT22;11991;57.150;-2.134;2023-09-07T06:51:06;16.60;99.90
23629;DHT22;11991;57.150;-2.134;2023-09-07T06:53:34;16.70;99.90
23629;DHT22;11991;57.150;-2.134;2023-09-07T06:56:21;16.70;99.90
23629;DHT22;11991;57.150;-2.134;2023-09-07T06:58:48;16.70;99.90
23629;DHT22;11991;57.150;-2.134;2023-09-07T07:01:15;16.80;99.90
23629;DHT22;11991;57.150;-2.134;2023-09-07T07:03:43;16.80;99.90
23629;DHT22;11991;57.150;-2.134;2023-09-07T07:06:11;16.80;99.90
23629;DHT22;11991;57.150;-2.134;2023-09-07T07:08:38;16.90;99.90
23629;DHT22;11991;57.150;-2.134;2023-09-07T07:11:05;16.90;99.90
23629;DHT22;11991;57.150;-2.134;2023-09-07T07:13:33;17.00;99.90
23629;DHT22;11991;57.150;-2.134;2023-09-07T07:16:01;17.10;99.90
23629;DHT22;11991;57.150;-2.134;2023-09-07T07:18:28;17.10;99.90
23629;DHT22;11991;57.150;-2.134;2023-09-07T07:20:57;17.10;99.90
23629;DHT22;11991;57.150;-2.134;2023-09-07T07:23:24;17.20;99.90
23629;DHT22;11991;57.150;-2.134;2023-09-07T07:25:51;17.20;99.90
23629;DHT22;11991;57.150;-2.134;2023-09-07T07:28:20;17.30;99.90
23629;DHT22;11991;57.150;-2.134;2023-09-07T07:30:48;17.30;99.90
23629;DHT22;11991;57.150;-2.134;2023-09-07T07:33:15;17.40;99.90
23629;DHT22;11991;57.150;-2.134;2023-09-07T07:35:43;17.40;99.90
23629;DHT22;11991;57.150;-2.134;2023-09-07T07:38:11;17.40;99.90
23629;DHT22;11991;57.150;-2.134;2023-09-07T07:40:41;17.50;99.90
23629;DHT22;11991;57.150;-2.134;2023-09-07T07:43:10;17.50;99.90
23629;DHT22;11991;57.150;-2.134;2023-09-07T07:45:38;17.60;99.90
23629;DHT22;11991;57.150;-2.134;2023-09-07T07:48:06;17.60;99.90
23629;DHT22;11991;57.150;-2.134;2023-09-07T07:50:38;17.70;99.90
23629;DHT22;11991;57.150;-2.134;2023-09-07T07:53:11;17.70;99.90
23629;DHT22;11991;57.150;-2.134;2023-09-07T07:55:40;17.80;99.90
23629;DHT22;11991;57.150;-2.134;2023-09-07T07:58:11;17.80;99.90
23629;DHT22;11991;57.150;-2.134;2023-09-07T08:00:40;17.90;99.90
23629;DHT22;11991;57.150;-2.134;2023-09-07T08:03:08;17.90;99.90
23629;DHT22;11991;57.150;-2.134;2023-09-07T08:05:37;18.00;99.90
23629;DHT22;11991;57.150;-2.134;2023-09-07T08:08:07;18.10;99.90
23629;DHT22;11991;57.150;-2.134;2023-09-07T08:10:36;18.20;99.90
23629;DHT22;11991;57.150;-2.134;2023-09-07T08:13:05;18.20;99.90
23629;DHT22;11991;57.150;-2.134;2023-09-07T08:15:33;18.30;99.90
23629;DHT22;11991;57.150;-2.134;2023-09-07T08:18:02;18.30;99.90
23629;DHT22;11991;57.150;-2.134;2023-09-07T08:20:32;18.40;99.90
23629;DHT22;11991;57.150;-2.134;2023-09-07T08:23:00;18.40;99.90
23629;DHT22;11991;57.150;-2.134;2023-09-07T08:25:31;18.40;99.90
23629;DHT22;11991;57.150;-2.134;2023-09-07T08:27:58;18.50;99.90
23629;DHT22;11991;57.150;-2.134;2023-09-07T08:30:26;18.50;99.90
23629;DHT22;11991;57.150;-2.134;2023-09-07T08:32:54;18.50;99.90
23629;DHT22;11991;57.150;-2.134;2023-09-07T08:35:22;18.50;99.90
23629;DHT22;11991;57.150;-2.134;2023-09-07T08:37:57;18.50;99.90
23629;DHT22;11991;57.150;-2.134;2023-09-07T08:40:27;18.50;99.90
23629;DHT22;11991;57.150;-2.134;2023-09-07T08:42:56;18.60;99.90
23629;DHT22;11991;57.150;-2.134;2023-09-07T08:45:26;18.60;99.90
23629;DHT22;11991;57.150;-2.134;2023-09-07T08:47:57;18.60;99.90
23629;DHT22;11991;57.150;-2.134;2023-09-07T08:50:25;18.70;99.90
23629;DHT22;11991;57.150;-2.134;2023-09-07T08:52:53;18.70;99.90
23629;DHT22;11991;57.150;-2.134;2023-09-07T08:55:21;18.80;99.90
23629;DHT22;11991;57.150;-2.134;2023-09-07T08:57:48;18.80;99.90
23629;DHT22;11991;57.150;-2.134;2023-09-07T09:00:16;18.90;99.90
23629;DHT22;11991;57.150;-2.134;2023-09-07T09:02:46;19.00;99.90
23629;DHT22;11991;57.150;-2.134;2023-09-07T09:05:22;19.10;99.90
23629;DHT22;11991;57.150;-2.134;2023-09-07T09:08:01;19.10;99.90
23629;DHT22;11991;57.150;-2.134;2023-09-07T09:10:28;19.20;99.90
23629;DHT22;11991;57.150;-2.134;2023-09-07T09:12:56;19.20;99.90
23629;DHT22;11991;57.150;-2.134;2023-09-07T09:15:23;19.20;99.90
23629;DHT22;11991;57.150;-2.134;2023-09-07T09:17:50;19.20;99.90
23629;DHT22;11991;57.150;-2.134;2023-09-07T09:20:24;19.30;99.90
23629;DHT22;11991;57.150;-2.134;2023-09-07T09:22:53;19.40;99.90
23629;DHT22;11991;57.150;-2.134;2023-09-07T09:25:21;19.50;99.90
23629;DHT22;11991;57.150;-2.134;2023-09-07T09:27:49;19.50;99.90
23629;DHT22;11991;57.150;-2.134;2023-09-07T09:30:16;19.50;99.90
23629;DHT22;11991;57.150;-2.134;2023-09-07T09:32:43;19.60;99.90
23629;DHT22;11991;57.150;-2.134;2023-09-07T09:35:11;19.60;99.90
23629;DHT22;11991;57.150;-2.134;2023-09-07T09:37:45;19.70;99.90
23629;DHT22;11991;57.150;-2.134;2023-09-07T09:40:13;19.80;99.90
23629;DHT22;11991;57.150;-2.134;2023-09-07T09:42:44;19.90;99.90
23629;DHT22;11991;57.150;-2.134;2023-09-07T09:45:12;19.90;99.90
23629;DHT22;11991;57.150;-2.134;2023-09-07T09:47:42;20.00;99.90
23629;DHT22;11991;57.150;-2.134;2023-09-07T09:50:10;20.10;99.90
23629;DHT22;11991;57.150;-2.134;2023-09-07T09:52:38;20.20;99.90
23629;DHT22;11991;57.150;-2.134;2023-09-07T09:55:07;20.30;99.90
23629;DHT22;11991;57.150;-2.134;2023-09-07T09:57:36;20.40;99.90
23629;DHT22;11991;57.150;-2.134;2023-09-07T10:00:04;20.40;99.90
23629;DHT22;11991;57.150;-2.134;2023-09-07T10:03:07;20.50;99.90
23629;DHT22;11991;57.150;-2.134;2023-09-07T10:05:38;20.60;99.90
23629;DHT22;11991;57.150;-2.134;2023-09-07T10:08:12;20.60;99.90
23629;DHT22;11991;57.150;-2.134;2023-09-07T10:10:46;20.70;99.90
23629;DHT22;11991;57.150;-2.134;2023-09-07T10:13:14;20.70;99.90
23629;DHT22;11991;57.150;-2.134;2023-09-07T10:15:41;20.70;99.90
23629;DHT22;11991;57.150;-2.134;2023-09-07T10:18:11;20.80;99.90
23629;DHT22;11991;57.150;-2.134;2023-09-07T10:20:58;20.80;99.90
23629;DHT22;11991;57.150;-2.134;2023-09-07T10:23:45;20.90;99.90
23629;DHT22;11991;57.150;-2.134;2023-09-07T10:26:16;21.00;99.90
23629;DHT22;11991;57.150;-2.134;2023-09-07T10:28:44;21.10;99.90
23629;DHT22;11991;57.150;-2.134;2023-09-07T10:31:19;21.10;99.90
23629;DHT22;11991;57.150;-2.134;2023-09-07T10:33:47;21.20;99.90
23629;DHT22;11991;57.150;-2.134;2023-09-07T10:36:26;21.20;99.90
23629;DHT22;11991;57.150;-2.134;2023-09-07T10:38:55;21.30;99.90
23629;DHT22;11991;57.150;-2.134;2023-09-07T10:41:23;21.40;99.90
23629;DHT22;11991;57.150;-2.134;2023-09-07T10:43:53;21.50;99.90
23629;DHT22;11991;57.150;-2.134;2023-09-07T10:46:22;21.50;99.90
23629;DHT22;11991;57.150;-2.134;2023-09-07T10:48:51;21.60;99.90
23629;DHT22;11991;57.150;-2.134;2023-09-07T10:51:19;21.70;99.90
23629;DHT22;11991;57.150;-2.134;2023-09-07T10:53:46;21.70;99.90
23629;DHT22;11991;57.150;-2.134;2023-09-07T10:56:14;21.80;99.90
23629;DHT22;11991;57.150;-2.134;2023-09-07T10:58:42;21.90;99.90
23629;DHT22;11991;57.150;-2.134;2023-09-07T11:01:10;22.00;99.90
23629;DHT22;11991;57.150;-2.134;2023-09-07T11:03:39;22.10;99.90
23629;DHT22;11991;57.150;-2.134;2023-09-07T11:06:10;22.10;99.90
23629;DHT22;11991;57.150;-2.134;2023-09-07T11:08:37;22.20;99.90
23629;DHT22;11991;57.150;-2.134;2023-09-07T11:11:05;22.20;99.90
23629;DHT22;11991;57.150;-2.134;2023-09-07T11:13:32;22.10;99.90
23629;DHT22;11991;57.150;-2.134;2023-09-07T11:16:01;22.20;99.90
23629;DHT22;11991;57.150;-2.134;2023-09-07T11:18:29;22.10;99.90
23629;DHT22;11991;57.150;-2.134;2023-09-07T11:20:56;22.20;99.90
23629;DHT22;11991;57.150;-2.134;2023-09-07T11:23:23;22.20;99.90
23629;DHT22;11991;57.150;-2.134;2023-09-07T11:25:51;22.20;99.90
23629;DHT22;11991;57.150;-2.134;2023-09-07T11:28:19;22.20;99.90
23629;DHT22;11991;57.150;-2.134;2023-09-07T11:33:18;22.20;99.90
23629;DHT22;11991;57.150;-2.134;2023-09-07T11:35:46;22.20;99.90
23629;DHT22;11991;57.150;-2.134;2023-09-07T11:38:16;22.20;99.90
23629;DHT22;11991;57.150;-2.134;2023-09-07T11:40:43;22.20;99.90
23629;DHT22;11991;57.150;-2.134;2023-09-07T11:43:16;22.20;99.90
23629;DHT22;11991;57.150;-2.134;2023-09-07T11:45:46;22.20;99.90
23629;DHT22;11991;57.150;-2.134;2023-09-07T11:48:13;22.10;99.90
23629;DHT22;11991;57.150;-2.134;2023-09-07T11:50:40;22.10;99.90
23629;DHT22;11991;57.150;-2.134;2023-09-07T11:53:08;22.00;99.90
23629;DHT22;11991;57.150;-2.134;2023-09-07T11:55:35;22.00;99.90
23629;DHT22;11991;57.150;-2.134;2023-09-07T11:58:03;22.00;99.90
23629;DHT22;11991;57.150;-2.134;2023-09-07T12:00:34;22.00;99.90
23629;DHT22;11991;57.150;-2.134;2023-09-07T12:03:01;22.00;99.90
23629;DHT22;11991;57.150;-2.134;2023-09-07T12:05:28;22.00;99.90
23629;DHT22;11991;57.150;-2.134;2023-09-07T12:07:55;22.00;99.90
23629;DHT22;11991;57.150;-2.134;2023-09-07T12:10:22;22.00;99.90
23629;DHT22;11991;57.150;-2.134;2023-09-07T12:12:49;22.00;99.90
23629;DHT22;11991;57.150;-2.134;2023-09-07T12:15:17;22.00;99.90
23629;DHT22;11991;57.150;-2.134;2023-09-07T12:17:44;22.00;99.90
23629;DHT22;11991;57.150;-2.134;2023-09-07T12:20:11;22.10;99.90
23629;DHT22;11991;57.150;-2.134;2023-09-07T12:22:40;22.10;99.90
23629;DHT22;11991;57.150;-2.134;2023-09-07T12:25:08;22.20;99.90
23629;DHT22;11991;57.150;-2.134;2023-09-07T12:27:42;22.30;99.90
23629;DHT22;11991;57.150;-2.134;2023-09-07T12:30:21;22.30;99.90
23629;DHT22;11991;57.150;-2.134;2023-09-07T12:32:51;22.40;99.90
23629;DHT22;11991;57.150;-2.134;2023-09-07T12:35:18;22.50;99.90
23629;DHT22;11991;57.150;-2.134;2023-09-07T12:37:47;22.50;99.90
23629;DHT22;11991;57.150;-2.134;2023-09-07T12:40:14;22.60;99.90
23629;DHT22;11991;57.150;-2.134;2023-09-07T12:42:43;22.70;99.90
23629;DHT22;11991;57.150;-2.134;2023-09-07T12:45:12;22.80;99.90
23629;DHT22;11991;57.150;-2.134;2023-09-07T12:47:39;22.80;99.90
23629;DHT22;11991;57.150;-2.134;2023-09-07T12:50:07;22.90;99.90
23629;DHT22;11991;57.150;-2.134;2023-09-07T12:52:35;23.00;99.90
23629;DHT22;11991;57.150;-2.134;2023-09-07T12:55:06;23.10;99.90
23629;DHT22;11991;57.150;-2.134;2023-09-07T12:57:34;23.10;99.90
23629;DHT22;11991;57.150;-2.134;2023-09-07T13:00:04;23.20;99.90
23629;DHT22;11991;57.150;-2.134;2023-09-07T13:02:32;23.20;99.90
23629;DHT22;11991;57.150;-2.134;2023-09-07T13:05:00;23.20;99.90
23629;DHT22;11991;57.150;-2.134;2023-09-07T13:07:27;23.20;99.90
23629;DHT22;11991;57.150;-2.134;2023-09-07T13:09:54;23.30;99.90
23629;DHT22;11991;57.150;-2.134;2023-09-07T13:12:22;23.30;99.90
23629;DHT22;11991;57.150;-2.134;2023-09-07T13:14:49;23.30;99.90
23629;DHT22;11991;57.150;-2.134;2023-09-07T13:17:17;23.30;99.90
23629;DHT22;11991;57.150;-2.134;2023-09-07T13:19:52;23.40;99.90
23629;DHT22;11991;57.150;-2.134;2023-09-07T13:22:19;23.50;99.90
23629;DHT22;11991;57.150;-2.134;2023-09-07T13:24:46;23.60;99.90
23629;DHT22;11991;57.150;-2.134;2023-09-07T13:27:13;23.60;99.90
23629;DHT22;11991;57.150;-2.134;2023-09-07T13:29:40;23.60;99.90
23629;DHT22;11991;57.150;-2.134;2023-09-07T13:32:07;23.60;99.90
23629;DHT22;11991;57.150;-2.134;2023-09-07T13:34:34;23.60;99.90
23629;DHT22;11991;57.150;-2.134;2023-09-07T13:37:02;23.40;99.90
23629;DHT22;11991;57.150;-2.134;2023-09-07T13:39:29;23.30;99.90
23629;DHT22;11991;57.150;-2.134;2023-09-07T13:41:56;23.00;99.90
23629;DHT22;11991;57.150;-2.134;2023-09-07T13:44:23;22.80;99.90
23629;DHT22;11991;57.150;-2.134;2023-09-07T13:46:50;22.50;99.90
23629;DHT22;11991;57.150;-2.134;2023-09-07T13:49:18;22.30;99.90
23629;DHT22;11991;57.150;-2.134;2023-09-07T13:51:46;22.10;99.90
23629;DHT22;11991;57.150;-2.134;2023-09-07T13:54:13;22.00;99.90
23629;DHT22;11991;57.150;-2.134;2023-09-07T13:56:40;21.90;99.90
23629;DHT22;11991;57.150;-2.134;2023-09-07T13:59:09;21.80;99.90
23629;DHT22;11991;57.150;-2.134;2023-09-07T14:01:36;21.80;99.90
23629;DHT22;11991;57.150;-2.134;2023-09-07T14:04:04;21.70;99.90
23629;DHT22;11991;57.150;-2.134;2023-09-07T14:06:31;21.70;99.90
23629;DHT22;11991;57.150;-2.134;2023-09-07T14:08:58;21.60;99.90
23629;DHT22;11991;57.150;-2.134;2023-09-07T14:11:26;21.60;99.90
23629;DHT22;11991;57.150;-2.134;2023-09-07T14:13:53;21.70;99.90
23629;DHT22;11991;57.150;-2.134;2023-09-07T14:16:22;21.60;99.90
23629;DHT22;11991;57.150;-2.134;2023-09-07T14:18:50;21.60;99.90
23629;DHT22;11991;57.150;-2.134;2023-09-07T14:21:17;21.60;99.90
23629;DHT22;11991;57.150;-2.134;2023-09-07T14:23:45;21.60;99.90
23629;DHT22;11991;57.150;-2.134;2023-09-07T14:26:12;21.50;99.90
23629;DHT22;11991;57.150;-2.134;2023-09-07T14:28:40;21.50;99.90
23629;DHT22;11991;57.150;-2.134;2023-09-07T14:31:07;21.50;99.90
23629;DHT22;11991;57.150;-2.134;2023-09-07T14:33:35;21.60;99.90
23629;DHT22;11991;57.150;-2.134;2023-09-07T14:36:08;21.60;99.90
23629;DHT22;11991;57.150;-2.134;2023-09-07T14:38:36;21.60;99.90
23629;DHT22;11991;57.150;-2.134;2023-09-07T14:41:08;21.60;99.90
23629;DHT22;11991;57.150;-2.134;2023-09-07T14:43:46;21.60;99.90
23629;DHT22;11991;57.150;-2.134;2023-09-07T14:46:14;21.60;99.90
23629;DHT22;11991;57.150;-2.134;2023-09-07T14:48:42;21.60;99.90
23629;DHT22;11991;57.150;-2.134;2023-09-07T14:51:09;21.60;99.90
23629;DHT22;11991;57.150;-2.134;2023-09-07T14:53:37;21.60;99.90
23629;DHT22;11991;57.150;-2.134;2023-09-07T14:56:04;21.70;99.90
23629;DHT22;11991;57.150;-2.134;2023-09-07T14:58:31;21.70;99.90
23629;DHT22;11991;57.150;-2.134;2023-09-07T15:00:58;21.70;99.90
23629;DHT22;11991;57.150;-2.134;2023-09-07T15:03:25;21.80;99.90
23629;DHT22;11991;57.150;-2.134;2023-09-07T15:05:53;21.80;99.90
23629;DHT22;11991;57.150;-2.134;2023-09-07T15:08:22;21.90;99.90
23629;DHT22;11991;57.150;-2.134;2023-09-07T15:10:49;21.90;99.90
23629;DHT22;11991;57.150;-2.134;2023-09-07T15:13:17;22.00;99.90
23629;DHT22;11991;57.150;-2.134;2023-09-07T15:15:44;22.00;99.90
23629;DHT22;11991;57.150;-2.134;2023-09-07T15:18:11;22.00;99.90
23629;DHT22;11991;57.150;-2.134;2023-09-07T15:20:38;22.00;99.90
23629;DHT22;11991;57.150;-2.134;2023-09-07T15:23:06;22.10;99.90
23629;DHT22;11991;57.150;-2.134;2023-09-07T15:25:33;22.10;99.90